Terminal Aerodrome Forecast
Issued by NWS

Home | Current Version | Previous Version | Text Only | Print | Product List | Glossary On
Versions: 1 2 3 4 5 6 7 8 9 10 11 12 13 14 15 16
863
FTUS44 KJAN 081744 RRA
TAFHKS
TAF
KHKS 081744Z 0818/0918 02010G20KT P6SM SCT050 BKN090
     FM082300 35007KT P6SM FEW090=

USA.gov is the U.S. government's official web portal to all federal, state and local government web resources and services.